createdAt,value
2023-06-17T00:00:48.515Z,5.32
2023-06-17T00:03:15.624Z,4.05
2023-06-17T00:05:43.043Z,3.85
2023-06-17T00:10:36.592Z,3.25
2023-06-17T00:13:03.681Z,3.90
2023-06-17T00:15:34.060Z,3.72
2023-06-17T00:18:01.998Z,3.75
2023-06-17T00:20:30.195Z,3.90
2023-06-17T00:22:57.051Z,5.03
2023-06-17T00:25:23.849Z,4.75
2023-06-17T00:27:50.679Z,4.07
2023-06-17T00:30:17.994Z,3.53
2023-06-17T00:35:12.052Z,4.00
2023-06-17T00:37:38.884Z,4.15
2023-06-17T00:40:09.554Z,4.00
2023-06-17T00:42:37.455Z,3.60
2023-06-17T00:45:04.573Z,3.53
2023-06-17T00:49:59.148Z,3.53
2023-06-17T00:52:41.216Z,4.18
2023-06-17T00:55:10.495Z,4.10
2023-06-17T00:57:38.724Z,3.80
2023-06-17T01:00:10.892Z,3.72
2023-06-17T01:02:41.676Z,3.40
2023-06-17T01:05:13.586Z,3.33
2023-06-17T01:08:09.511Z,4.72
2023-06-17T01:11:09.348Z,4.38
2023-06-17T01:13:37.283Z,3.80
2023-06-17T01:16:05.761Z,4.38
2023-06-17T01:18:33.675Z,2.92
2023-06-17T01:21:01.162Z,3.13
2023-06-17T01:26:03.525Z,4.18
2023-06-17T01:28:31.233Z,3.83
2023-06-17T01:30:58.598Z,3.83
2023-06-17T01:33:26.585Z,3.33
2023-06-17T01:36:01.377Z,3.50
2023-06-17T01:38:35.854Z,3.45
2023-06-17T01:41:05.612Z,3.63
2023-06-17T01:43:35.436Z,4.38
2023-06-17T01:46:05.443Z,4.43
2023-06-17T01:48:32.255Z,4.50
2023-06-17T01:50:58.895Z,4.43
2023-06-17T01:53:28.423Z,4.15
2023-06-17T01:55:55.569Z,3.38
2023-06-17T01:58:22.438Z,3.65
2023-06-17T02:00:49.071Z,5.05
2023-06-17T02:03:17.255Z,4.43
2023-06-17T02:05:44.575Z,4.38
2023-06-17T02:08:15.261Z,4.70
2023-06-17T02:10:41.919Z,5.25
2023-06-17T02:13:11.404Z,4.82
2023-06-17T02:15:39.951Z,4.78
2023-06-17T02:18:07.036Z,4.60
2023-06-17T02:20:33.977Z,4.25
2023-06-17T02:23:02.156Z,5.68
2023-06-17T02:25:29.342Z,4.43
2023-06-17T02:27:56.162Z,4.20
2023-06-17T02:30:23.127Z,4.70
2023-06-17T02:32:50.125Z,3.58
2023-06-17T02:35:16.874Z,3.78
2023-06-17T02:37:44.244Z,3.60
2023-06-17T02:40:11.678Z,4.07
2023-06-17T02:42:39.360Z,4.85
2023-06-17T02:45:08.365Z,3.92
2023-06-17T02:47:35.115Z,4.53
2023-06-17T02:50:01.897Z,4.20
2023-06-17T02:52:31.861Z,3.95
2023-06-17T02:54:58.959Z,4.40
2023-06-17T02:57:25.792Z,4.55
2023-06-17T02:59:52.981Z,4.28
2023-06-17T03:02:19.814Z,4.32
2023-06-17T03:04:47.728Z,4.30
2023-06-17T03:07:16.831Z,3.80
2023-06-17T03:09:44.439Z,4.88
2023-06-17T03:12:12.212Z,3.65
2023-06-17T03:14:39.685Z,4.55
2023-06-17T03:17:13.106Z,3.15
2023-06-17T03:19:40.470Z,3.58
2023-06-17T03:22:08.153Z,3.47
2023-06-17T03:24:38.716Z,4.15
2023-06-17T03:27:05.751Z,3.63
2023-06-17T03:29:35.624Z,3.42
2023-06-17T03:32:03.518Z,4.00
2023-06-17T03:34:33.573Z,3.35
2023-06-17T03:37:05.851Z,2.47
2023-06-17T03:39:32.890Z,2.90
2023-06-17T03:41:59.594Z,2.33
2023-06-17T03:44:26.943Z,2.25
2023-06-17T03:46:53.819Z,2.88
2023-06-17T03:49:20.612Z,2.88
2023-06-17T03:51:48.663Z,2.72
2023-06-17T03:54:16.049Z,2.53
2023-06-17T03:56:43.104Z,3.80
2023-06-17T03:59:10.080Z,3.47
2023-06-17T04:01:36.945Z,3.47
2023-06-17T04:04:04.223Z,3.53
2023-06-17T04:06:31.438Z,3.50
2023-06-17T04:08:58.321Z,3.13
2023-06-17T04:11:24.957Z,3.00
2023-06-17T04:13:51.652Z,2.95
2023-06-17T04:16:18.342Z,2.95
2023-06-17T04:18:46.475Z,2.83
2023-06-17T04:21:13.418Z,2.63
2023-06-17T04:23:40.512Z,3.03
2023-06-17T04:26:07.727Z,3.10
2023-06-17T04:31:02.710Z,2.65
2023-06-17T04:33:38.733Z,3.30
2023-06-17T04:36:09.236Z,3.63
2023-06-17T04:38:38.912Z,3.50
2023-06-17T04:41:06.885Z,3.60
2023-06-17T04:43:34.829Z,3.10
2023-06-17T04:46:02.300Z,3.75
2023-06-17T04:48:31.916Z,4.03
2023-06-17T04:50:59.316Z,3.40
2023-06-17T04:53:27.865Z,3.65
2023-06-17T04:55:55.121Z,3.42
2023-06-17T04:58:22.258Z,3.35
2023-06-17T05:00:52.398Z,3.67
2023-06-17T05:03:25.913Z,3.78
2023-06-17T05:05:55.594Z,3.90
2023-06-17T05:08:24.142Z,4.22
2023-06-17T05:10:51.080Z,3.10
2023-06-17T05:13:17.923Z,3.22
2023-06-17T05:15:44.896Z,3.50
2023-06-17T05:18:12.129Z,3.33
2023-06-17T05:20:40.149Z,4.72
2023-06-17T05:25:34.523Z,4.03
2023-06-17T05:28:01.582Z,3.50
2023-06-17T05:30:31.855Z,3.90
2023-06-17T05:33:00.847Z,3.53
2023-06-17T05:35:28.627Z,3.60
2023-06-17T05:37:56.883Z,3.75
2023-06-17T05:40:23.770Z,3.20
2023-06-17T05:42:51.078Z,4.47
2023-06-17T05:45:18.250Z,3.70
2023-06-17T05:47:45.134Z,3.40
2023-06-17T05:50:12.049Z,3.88
2023-06-17T05:52:41.075Z,4.47
2023-06-17T05:55:08.334Z,4.40
2023-06-17T05:57:35.133Z,4.53
2023-06-17T06:00:01.819Z,4.57
2023-06-17T06:04:55.713Z,5.07
2023-06-17T06:07:22.520Z,4.82
2023-06-17T06:09:49.486Z,5.38
2023-06-17T06:12:16.163Z,5.45
2023-06-17T06:14:42.762Z,5.35
2023-06-17T06:17:09.877Z,5.97
2023-06-17T06:19:36.686Z,5.90
2023-06-17T06:22:03.498Z,6.18
2023-06-17T06:24:30.322Z,6.63
2023-06-17T06:29:24.135Z,6.10
2023-06-17T06:31:51.049Z,6.93
2023-06-17T06:34:19.433Z,5.55
2023-06-17T06:36:46.691Z,6.07
2023-06-17T06:39:15.532Z,6.03
2023-06-17T06:41:43.377Z,6.22
2023-06-17T06:44:37.956Z,6.95
2023-06-17T06:47:05.117Z,6.65
2023-06-17T06:49:31.796Z,5.63
2023-06-17T06:51:58.538Z,6.15
2023-06-17T06:54:25.482Z,5.57
2023-06-17T06:56:52.347Z,5.20
2023-06-17T06:59:19.327Z,5.68
2023-06-17T07:01:46.052Z,5.57
2023-06-17T07:04:12.824Z,6.55
2023-06-17T07:06:39.718Z,6.25
2023-06-17T07:09:09.735Z,6.32
2023-06-17T07:11:37.235Z,6.82
2023-06-17T07:16:31.078Z,5.78
2023-06-17T07:18:57.881Z,6.55
2023-06-17T07:21:24.775Z,6.20
2023-06-17T07:23:52.339Z,5.60
2023-06-17T07:26:19.887Z,5.60
2023-06-17T07:28:47.010Z,4.95
2023-06-17T07:31:16.711Z,6.05
2023-06-17T07:33:43.580Z,6.20
2023-06-17T07:36:10.404Z,6.22
2023-06-17T07:38:37.311Z,4.85
2023-06-17T07:41:04.072Z,6.07
2023-06-17T07:43:31.186Z,4.18
2023-06-17T07:45:58.136Z,5.03
2023-06-17T07:48:24.863Z,6.10
2023-06-17T07:50:51.598Z,5.18
2023-06-17T07:53:18.421Z,4.55
2023-06-17T07:55:45.309Z,4.63
2023-06-17T08:00:38.541Z,6.63
2023-06-17T08:03:06.465Z,5.68
2023-06-17T08:05:33.417Z,5.47
2023-06-17T08:08:00.146Z,5.43
2023-06-17T08:10:26.892Z,4.80
2023-06-17T08:12:53.755Z,4.88
2023-06-17T08:15:20.774Z,5.72
2023-06-17T08:17:49.626Z,4.95
2023-06-17T08:20:17.217Z,4.88
2023-06-17T08:22:44.000Z,5.82
2023-06-17T08:25:10.734Z,6.57
2023-06-17T08:27:38.671Z,5.55
2023-06-17T08:30:07.045Z,4.55
2023-06-17T08:32:33.827Z,5.72
2023-06-17T08:35:07.102Z,5.28
2023-06-17T08:37:34.725Z,5.53
2023-06-17T08:40:01.465Z,5.60
2023-06-17T08:42:28.588Z,5.15
2023-06-17T08:47:22.454Z,5.28
2023-06-17T08:49:49.843Z,4.95
2023-06-17T08:52:16.893Z,6.28
2023-06-17T08:54:44.153Z,6.60
2023-06-17T08:57:14.645Z,4.70
2023-06-17T08:59:42.238Z,4.70
2023-06-17T09:02:11.702Z,4.45
2023-06-17T09:04:38.641Z,5.25
2023-06-17T09:07:05.849Z,5.75
2023-06-17T09:09:32.584Z,6.30
2023-06-17T09:12:03.149Z,5.63
2023-06-17T09:14:29.876Z,6.15
2023-06-17T09:16:56.675Z,6.18
2023-06-17T09:19:24.426Z,5.53
2023-06-17T09:21:51.236Z,5.57
2023-06-17T09:24:19.193Z,4.20
2023-06-17T09:26:46.132Z,4.03
2023-06-17T09:31:56.989Z,4.47
2023-06-17T09:34:23.968Z,5.78
2023-06-17T09:39:32.576Z,5.72
2023-06-17T09:42:08.914Z,6.68
2023-06-17T09:44:38.328Z,6.25
2023-06-17T09:47:09.712Z,4.10
2023-06-17T09:49:37.990Z,7.25
2023-06-17T09:52:10.327Z,5.75
2023-06-17T09:54:38.094Z,5.18
2023-06-17T09:57:08.659Z,6.40
2023-06-17T09:59:35.595Z,5.60
2023-06-17T10:02:02.350Z,4.55
2023-06-17T10:04:29.139Z,4.00
2023-06-17T10:06:59.196Z,5.68
2023-06-17T10:09:26.637Z,5.82
2023-06-17T10:11:56.844Z,4.95
2023-06-17T10:14:33.796Z,4.68
2023-06-17T10:17:03.198Z,4.78
2023-06-17T10:19:34.082Z,4.18
2023-06-17T10:22:04.676Z,3.88
2023-06-17T10:24:32.132Z,4.60
2023-06-17T10:29:36.742Z,4.57
2023-06-17T10:32:19.588Z,4.35
2023-06-17T10:35:08.191Z,4.45
2023-06-17T10:37:53.904Z,3.70
2023-06-17T10:40:28.759Z,4.68
2023-06-17T10:43:01.551Z,4.60
2023-06-17T10:45:32.489Z,3.78
2023-06-17T10:48:21.065Z,4.70
2023-06-17T10:50:58.860Z,3.70
2023-06-17T10:53:38.926Z,4.40
2023-06-17T10:56:07.953Z,4.38
2023-06-17T10:58:37.021Z,4.13
2023-06-17T11:01:06.815Z,4.82
2023-06-17T11:03:33.963Z,3.83
2023-06-17T11:06:05.593Z,4.72
2023-06-17T11:08:34.462Z,5.93
2023-06-17T11:11:08.043Z,5.55
2023-06-17T11:13:34.991Z,4.78
2023-06-17T11:18:28.484Z,4.50
2023-06-17T11:20:55.469Z,4.50
2023-06-17T11:23:22.119Z,4.55
2023-06-17T11:25:53.854Z,4.82
2023-06-17T11:28:21.752Z,5.60
2023-06-17T11:30:50.591Z,5.35
2023-06-17T11:33:22.274Z,5.72
2023-06-17T11:35:52.408Z,5.18
2023-06-17T11:38:23.895Z,4.80
2023-06-17T11:40:58.817Z,4.50
2023-06-17T11:43:29.358Z,6.28
2023-06-17T11:46:03.797Z,5.50
2023-06-17T11:48:34.738Z,4.30
2023-06-17T11:51:01.664Z,5.53
2023-06-17T11:56:03.758Z,5.63
2023-06-17T11:58:30.544Z,4.50
2023-06-17T12:01:07.056Z,4.78
2023-06-17T12:03:34.129Z,5.22
2023-06-17T12:06:01.566Z,5.47
2023-06-17T12:08:36.709Z,4.80
2023-06-17T12:11:10.710Z,4.72
2023-06-17T12:13:41.413Z,4.53
2023-06-17T12:16:12.087Z,4.45
2023-06-17T12:18:48.460Z,4.10
2023-06-17T12:21:15.247Z,4.75
2023-06-17T12:23:41.849Z,4.85
2023-06-17T12:26:10.739Z,4.53
2023-06-17T12:28:38.309Z,4.43
2023-06-17T12:31:05.048Z,4.80
2023-06-17T12:33:31.777Z,4.50
2023-06-17T12:38:29.436Z,4.45
2023-06-17T12:40:56.213Z,4.22
2023-06-17T12:43:22.839Z,4.38
2023-06-17T12:48:16.722Z,3.75
2023-06-17T12:50:44.421Z,4.43
2023-06-17T12:53:12.456Z,4.93
2023-06-17T12:55:45.588Z,4.85
2023-06-17T12:58:13.153Z,5.40
2023-06-17T13:00:40.942Z,3.88
2023-06-17T13:03:07.891Z,3.80
2023-06-17T13:05:34.539Z,4.32
2023-06-17T13:08:01.412Z,4.13
2023-06-17T13:10:28.625Z,4.07
2023-06-17T13:12:55.490Z,4.53
2023-06-17T13:15:22.381Z,4.60
2023-06-17T13:17:49.592Z,4.32
2023-06-17T13:20:16.606Z,4.07
2023-06-17T13:22:43.849Z,4.55
2023-06-17T13:25:10.692Z,4.00
2023-06-17T13:30:04.486Z,4.38
2023-06-17T13:32:31.290Z,4.00
2023-06-17T13:37:24.669Z,4.82
2023-06-17T13:39:51.294Z,4.53
2023-06-17T13:42:18.518Z,4.50
2023-06-17T13:44:45.642Z,4.70
2023-06-17T13:47:12.595Z,4.60
2023-06-17T13:49:39.252Z,5.07
2023-06-17T13:52:07.314Z,4.40
2023-06-17T13:54:34.214Z,4.95
2023-06-17T13:59:27.841Z,4.95
2023-06-17T14:01:54.771Z,4.88
2023-06-17T14:04:21.880Z,4.28
2023-06-17T14:06:49.337Z,4.50
2023-06-17T14:09:16.136Z,4.45
2023-06-17T14:11:43.971Z,4.57
2023-06-17T14:14:10.768Z,4.53
2023-06-17T14:16:37.606Z,3.88
2023-06-17T14:19:04.494Z,4.63
2023-06-17T14:24:12.123Z,5.00
2023-06-17T14:26:41.529Z,4.70
2023-06-17T14:29:10.029Z,4.95
2023-06-17T14:31:37.642Z,4.18
2023-06-17T14:34:04.494Z,3.58
2023-06-17T14:39:00.057Z,3.63
2023-06-17T14:41:26.836Z,4.03
2023-06-17T14:43:53.654Z,4.07
2023-06-17T14:46:20.686Z,4.13
2023-06-17T14:48:47.702Z,4.28
2023-06-17T14:53:43.769Z,3.83
2023-06-17T14:56:19.580Z,4.55
2023-06-17T14:58:46.485Z,4.40
2023-06-17T15:01:13.303Z,4.28
2023-06-17T15:06:06.746Z,4.35
2023-06-17T15:08:36.590Z,4.20
2023-06-17T15:11:03.504Z,4.20
2023-06-17T15:15:57.183Z,3.80
2023-06-17T15:18:23.793Z,4.15
2023-06-17T15:20:50.442Z,3.83
2023-06-17T15:23:17.194Z,4.53
2023-06-17T15:25:44.030Z,4.75
2023-06-17T15:30:39.116Z,4.57
2023-06-17T15:33:05.875Z,4.03
2023-06-17T15:35:32.497Z,3.80
2023-06-17T15:37:59.156Z,4.35
2023-06-17T15:40:26.469Z,4.22
2023-06-17T15:42:56.703Z,4.30
2023-06-17T15:45:23.824Z,4.13
2023-06-17T15:47:51.156Z,4.55
2023-06-17T15:50:17.921Z,4.15
2023-06-17T15:52:44.797Z,4.38
2023-06-17T15:55:11.548Z,4.43
2023-06-17T15:57:38.608Z,4.72
2023-06-17T16:00:06.036Z,3.47
2023-06-17T16:02:39.014Z,4.32
2023-06-17T16:05:06.110Z,4.65
2023-06-17T16:07:33.925Z,3.90
2023-06-17T16:10:01.915Z,4.35
2023-06-17T16:12:28.674Z,4.72
2023-06-17T16:14:55.684Z,4.22
2023-06-17T16:17:22.450Z,5.13
2023-06-17T16:19:49.303Z,4.20
2023-06-17T16:22:16.135Z,4.47
2023-06-17T16:24:44.565Z,3.75
2023-06-17T16:27:12.064Z,3.97
2023-06-17T16:29:38.927Z,4.30
2023-06-17T16:32:06.105Z,3.75
2023-06-17T16:34:32.918Z,4.00
2023-06-17T16:36:59.689Z,4.50
2023-06-17T16:39:26.451Z,4.00
2023-06-17T16:44:20.038Z,3.67
2023-06-17T16:46:49.854Z,3.65
2023-06-17T16:49:16.605Z,4.32
2023-06-17T16:51:43.471Z,4.30
2023-06-17T16:56:37.522Z,3.92
2023-06-17T16:59:04.825Z,4.40
2023-06-17T17:01:31.621Z,4.47
2023-06-17T17:06:28.451Z,4.25
2023-06-17T17:08:55.244Z,4.63
2023-06-17T17:13:50.248Z,3.83
2023-06-17T17:16:18.233Z,4.22
2023-06-17T17:18:45.332Z,4.15
2023-06-17T17:21:13.075Z,4.05
2023-06-17T17:23:43.310Z,3.70
2023-06-17T17:26:13.769Z,4.25
2023-06-17T17:28:41.608Z,4.03
2023-06-17T17:31:09.168Z,4.57
2023-06-17T17:33:36.473Z,3.63
2023-06-17T17:36:03.227Z,3.80
2023-06-17T17:38:29.974Z,4.15
2023-06-17T17:40:56.917Z,4.88
2023-06-17T17:45:50.207Z,4.95
2023-06-17T17:48:17.128Z,4.15
2023-06-17T17:53:10.641Z,4.38
2023-06-17T17:58:04.254Z,4.53
2023-06-17T18:02:57.568Z,4.38
2023-06-17T18:05:24.334Z,4.28
2023-06-17T18:07:51.301Z,4.38
2023-06-17T18:12:44.611Z,4.80
2023-06-17T18:15:12.020Z,4.93
2023-06-17T18:17:39.115Z,5.35
2023-06-17T18:20:09.251Z,4.35
2023-06-17T18:22:37.290Z,4.10
2023-06-17T18:25:05.622Z,4.93
2023-06-17T18:27:36.346Z,4.47
2023-06-17T18:30:04.927Z,4.20
2023-06-17T18:32:32.153Z,4.75
2023-06-17T18:34:59.058Z,4.95
2023-06-17T18:37:25.886Z,4.35
2023-06-17T18:42:19.294Z,4.55
2023-06-17T18:44:46.176Z,4.53
2023-06-17T18:47:13.211Z,4.72
2023-06-17T18:49:39.977Z,4.75
2023-06-17T18:52:06.971Z,4.43
2023-06-17T18:57:01.128Z,4.05
2023-06-17T18:59:27.964Z,4.43
2023-06-17T19:01:54.858Z,4.32
2023-06-17T19:06:50.094Z,3.92
2023-06-17T19:09:16.930Z,4.80
2023-06-17T19:11:43.625Z,3.95
2023-06-17T19:14:10.362Z,4.25
2023-06-17T19:16:37.160Z,4.25
2023-06-17T19:19:03.859Z,4.50
2023-06-17T19:21:31.859Z,4.35
2023-06-17T19:23:58.532Z,4.53
2023-06-17T19:26:25.561Z,3.97
2023-06-17T19:31:19.358Z,4.32
2023-06-17T19:33:46.259Z,3.88
2023-06-17T19:36:13.291Z,4.10
2023-06-17T19:38:40.043Z,4.75
2023-06-17T19:41:06.803Z,4.13
2023-06-17T19:43:34.785Z,5.47
2023-06-17T19:46:02.407Z,5.68
2023-06-17T19:48:29.664Z,6.13
2023-06-17T19:51:00.352Z,6.78
2023-06-17T19:53:27.393Z,5.47
2023-06-17T19:55:54.616Z,6.15
2023-06-17T19:58:22.316Z,6.53
2023-06-17T20:00:49.258Z,5.55
2023-06-17T20:03:16.819Z,5.50
2023-06-17T20:05:45.978Z,5.80
2023-06-17T20:08:14.242Z,6.00
2023-06-17T20:10:41.500Z,5.43
2023-06-17T20:15:35.778Z,5.45
2023-06-17T20:18:03.654Z,4.72
2023-06-17T20:20:31.192Z,4.72
2023-06-17T20:22:57.921Z,4.13
2023-06-17T20:25:24.615Z,5.45
2023-06-17T20:27:51.457Z,5.93
2023-06-17T20:30:18.679Z,4.38
2023-06-17T20:32:45.485Z,5.82
2023-06-17T20:35:12.206Z,5.53
2023-06-17T20:37:39.073Z,4.93
2023-06-17T20:40:06.639Z,4.85
2023-06-17T20:42:33.353Z,6.13
2023-06-17T20:44:59.988Z,5.43
2023-06-17T20:47:27.302Z,6.00
2023-06-17T20:49:54.124Z,6.63
2023-06-17T20:52:21.108Z,5.53
2023-06-17T20:54:47.748Z,5.55
2023-06-17T20:57:14.622Z,5.85
2023-06-17T20:59:41.274Z,6.10
2023-06-17T21:02:08.129Z,6.10
2023-06-17T21:04:34.969Z,5.75
2023-06-17T21:07:01.687Z,6.53
2023-06-17T21:09:28.922Z,6.32
2023-06-17T21:11:55.782Z,6.38
2023-06-17T21:14:22.503Z,6.03
2023-06-17T21:16:49.547Z,6.75
2023-06-17T21:19:16.506Z,7.35
2023-06-17T21:21:43.298Z,6.00
2023-06-17T21:24:10.015Z,6.28
2023-06-17T21:26:36.928Z,5.50
2023-06-17T21:29:03.631Z,5.18
2023-06-17T21:31:30.372Z,6.22
2023-06-17T21:33:57.224Z,6.28
2023-06-17T21:36:24.191Z,5.63
2023-06-17T21:38:50.981Z,5.95
2023-06-17T21:41:17.761Z,6.80
2023-06-17T21:43:44.472Z,5.70
2023-06-17T21:46:11.253Z,6.07
2023-06-17T21:48:37.948Z,5.57
2023-06-17T21:51:04.629Z,6.75
2023-06-17T21:53:31.322Z,6.10
2023-06-17T21:55:58.080Z,6.25
2023-06-17T21:58:25.151Z,7.30
2023-06-17T22:00:52.067Z,5.10
2023-06-17T22:03:23.403Z,5.22
2023-06-17T22:05:50.712Z,4.35
2023-06-17T22:08:20.204Z,5.13
2023-06-17T22:10:49.334Z,4.13
2023-06-17T22:13:16.091Z,5.25
2023-06-17T22:15:42.842Z,5.18
2023-06-17T22:18:11.464Z,4.32
2023-06-17T22:20:38.077Z,3.97
2023-06-17T22:23:04.809Z,4.47
2023-06-17T22:25:31.630Z,4.72
2023-06-17T22:27:58.537Z,5.60
2023-06-17T22:30:25.264Z,4.60
2023-06-17T22:32:52.162Z,5.15
2023-06-17T22:35:18.886Z,5.50
2023-06-17T22:37:45.643Z,4.90
2023-06-17T22:40:14.935Z,5.00
2023-06-17T22:42:41.782Z,4.93
2023-06-17T22:45:08.859Z,6.53
2023-06-17T22:47:35.910Z,5.13
2023-06-17T22:50:05.075Z,5.68
2023-06-17T22:52:32.190Z,4.90
2023-06-17T22:55:00.925Z,4.45
2023-06-17T22:57:28.458Z,4.90
2023-06-17T22:59:55.230Z,3.95
2023-06-17T23:02:21.981Z,4.93
2023-06-17T23:04:49.421Z,4.82
2023-06-17T23:07:16.307Z,5.50
2023-06-17T23:09:42.981Z,5.03
2023-06-17T23:12:10.189Z,4.80
2023-06-17T23:14:36.935Z,4.93
2023-06-17T23:17:03.808Z,4.80
2023-06-17T23:19:30.529Z,4.55
2023-06-17T23:22:00.378Z,4.50
2023-06-17T23:24:27.710Z,3.83
2023-06-17T23:26:54.465Z,5.63
2023-06-17T23:29:21.193Z,4.60
2023-06-17T23:31:48.094Z,3.80
2023-06-17T23:34:15.617Z,5.03
2023-06-17T23:36:44.098Z,5.32
2023-06-17T23:39:11.048Z,5.20
2023-06-17T23:41:37.743Z,4.97
2023-06-17T23:44:04.792Z,4.25
2023-06-17T23:46:31.914Z,4.22
2023-06-17T23:48:58.907Z,4.70
2023-06-17T23:51:25.823Z,4.95
2023-06-17T23:53:52.504Z,5.05
2023-06-17T23:56:19.239Z,4.30
2023-06-17T23:58:46.185Z,4.93
